sensor_id;sensor_type;location;lat;lon;timestamp;temperature;humidity
8261;DHT22;64115;50.170;8.242;2023-07-24T00:00:48;17.90;99.90
8261;DHT22;64115;50.170;8.242;2023-07-24T00:03:15;17.90;99.90
8261;DHT22;64115;50.170;8.242;2023-07-24T00:05:42;17.90;99.90
8261;DHT22;64115;50.170;8.242;2023-07-24T00:08:10;17.90;99.90
8261;DHT22;64115;50.170;8.242;2023-07-24T00:10:37;17.90;99.90
8261;DHT22;64115;50.170;8.242;2023-07-24T00:13:03;17.90;99.90
8261;DHT22;64115;50.170;8.242;2023-07-24T00:15:31;17.90;99.90
8261;DHT22;64115;50.170;8.242;2023-07-24T00:17:58;17.90;99.90
8261;DHT22;64115;50.170;8.242;2023-07-24T00:20:25;17.90;99.90
8261;DHT22;64115;50.170;8.242;2023-07-24T00:22:53;17.90;99.90
8261;DHT22;64115;50.170;8.242;2023-07-24T00:25:21;17.90;99.90
8261;DHT22;64115;50.170;8.242;2023-07-24T00:27:48;17.90;99.90
8261;DHT22;64115;50.170;8.242;2023-07-24T00:30:15;17.90;99.90
8261;DHT22;64115;50.170;8.242;2023-07-24T00:32:41;17.90;99.90
8261;DHT22;64115;50.170;8.242;2023-07-24T00:35:08;17.90;99.90
8261;DHT22;64115;50.170;8.242;2023-07-24T00:37:35;17.90;99.90
8261;DHT22;64115;50.170;8.242;2023-07-24T00:40:02;17.90;99.90
8261;DHT22;64115;50.170;8.242;2023-07-24T00:42:30;17.90;99.90
8261;DHT22;64115;50.170;8.242;2023-07-24T00:44:57;17.90;99.90
8261;DHT22;64115;50.170;8.242;2023-07-24T00:47:25;17.90;99.90
8261;DHT22;64115;50.170;8.242;2023-07-24T00:49:53;17.90;99.90
8261;DHT22;64115;50.170;8.242;2023-07-24T00:52:21;17.90;99.90
8261;DHT22;64115;50.170;8.242;2023-07-24T00:54:49;17.90;99.90
8261;DHT22;64115;50.170;8.242;2023-07-24T00:57:19;17.80;99.90
8261;DHT22;64115;50.170;8.242;2023-07-24T00:59:47;17.80;99.90
8261;DHT22;64115;50.170;8.242;2023-07-24T01:02:14;17.80;99.90
8261;DHT22;64115;50.170;8.242;2023-07-24T01:04:44;17.70;99.90
8261;DHT22;64115;50.170;8.242;2023-07-24T01:07:11;17.70;99.90
8261;DHT22;64115;50.170;8.242;2023-07-24T01:09:38;17.70;99.90
8261;DHT22;64115;50.170;8.242;2023-07-24T01:12:10;17.70;99.90
8261;DHT22;64115;50.170;8.242;2023-07-24T01:14:44;17.60;99.90
8261;DHT22;64115;50.170;8.242;2023-07-24T01:17:16;17.60;99.90
8261;DHT22;64115;50.170;8.242;2023-07-24T01:19:47;17.60;99.90
8261;DHT22;64115;50.170;8.242;2023-07-24T01:22:21;17.60;99.90
8261;DHT22;64115;50.170;8.242;2023-07-24T01:25:05;17.60;99.90
8261;DHT22;64115;50.170;8.242;2023-07-24T01:27:41;17.60;99.90
8261;DHT22;64115;50.170;8.242;2023-07-24T01:30:10;17.50;99.90
8261;DHT22;64115;50.170;8.242;2023-07-24T01:32:38;17.50;99.90
8261;DHT22;64115;50.170;8.242;2023-07-24T01:35:05;17.40;99.90
8261;DHT22;64115;50.170;8.242;2023-07-24T01:37:36;17.40;99.90
8261;DHT22;64115;50.170;8.242;2023-07-24T01:40:06;17.40;99.90
8261;DHT22;64115;50.170;8.242;2023-07-24T01:42:34;17.40;99.90
8261;DHT22;64115;50.170;8.242;2023-07-24T01:45:03;17.40;99.90
8261;DHT22;64115;50.170;8.242;2023-07-24T01:47:31;17.50;99.90
8261;DHT22;64115;50.170;8.242;2023-07-24T01:49:58;17.50;99.90
8261;DHT22;64115;50.170;8.242;2023-07-24T01:52:26;17.60;99.90
8261;DHT22;64115;50.170;8.242;2023-07-24T01:54:52;17.60;99.90
8261;DHT22;64115;50.170;8.242;2023-07-24T01:57:19;17.60;99.90
8261;DHT22;64115;50.170;8.242;2023-07-24T01:59:46;17.60;99.90
8261;DHT22;64115;50.170;8.242;2023-07-24T02:02:15;17.70;99.90
8261;DHT22;64115;50.170;8.242;2023-07-24T02:04:42;17.70;99.90
8261;DHT22;64115;50.170;8.242;2023-07-24T02:07:09;17.70;99.90
8261;DHT22;64115;50.170;8.242;2023-07-24T02:09:36;17.60;99.90
8261;DHT22;64115;50.170;8.242;2023-07-24T02:12:03;17.60;99.90
8261;DHT22;64115;50.170;8.242;2023-07-24T02:14:30;17.60;99.90
8261;DHT22;64115;50.170;8.242;2023-07-24T02:16:57;17.70;99.90
8261;DHT22;64115;50.170;8.242;2023-07-24T02:19:27;17.70;99.90
8261;DHT22;64115;50.170;8.242;2023-07-24T02:21:54;17.60;99.90
8261;DHT22;64115;50.170;8.242;2023-07-24T02:24:21;17.70;99.90
8261;DHT22;64115;50.170;8.242;2023-07-24T02:26:48;17.60;99.90
8261;DHT22;64115;50.170;8.242;2023-07-24T02:29:15;17.60;99.90
8261;DHT22;64115;50.170;8.242;2023-07-24T02:31:41;17.60;99.90
8261;DHT22;64115;50.170;8.242;2023-07-24T02:34:08;17.60;99.90
8261;DHT22;64115;50.170;8.242;2023-07-24T02:36:36;17.60;99.90
8261;DHT22;64115;50.170;8.242;2023-07-24T02:39:03;17.60;99.90
8261;DHT22;64115;50.170;8.242;2023-07-24T02:41:30;17.60;99.90
8261;DHT22;64115;50.170;8.242;2023-07-24T02:43:56;17.60;99.90
8261;DHT22;64115;50.170;8.242;2023-07-24T02:46:23;17.60;99.90
8261;DHT22;64115;50.170;8.242;2023-07-24T02:48:50;17.60;99.90
8261;DHT22;64115;50.170;8.242;2023-07-24T02:51:17;17.60;99.90
8261;DHT22;64115;50.170;8.242;2023-07-24T02:53:45;17.60;99.90
8261;DHT22;64115;50.170;8.242;2023-07-24T02:56:12;17.60;99.90
8261;DHT22;64115;50.170;8.242;2023-07-24T02:58:38;17.60;99.90
8261;DHT22;64115;50.170;8.242;2023-07-24T03:01:06;17.50;99.90
8261;DHT22;64115;50.170;8.242;2023-07-24T03:03:34;17.60;99.90
8261;DHT22;64115;50.170;8.242;2023-07-24T03:06:02;17.60;99.90
8261;DHT22;64115;50.170;8.242;2023-07-24T03:08:29;17.60;99.90
8261;DHT22;64115;50.170;8.242;2023-07-24T03:10:57;17.60;99.90
8261;DHT22;64115;50.170;8.242;2023-07-24T03:13:23;17.60;99.90
8261;DHT22;64115;50.170;8.242;2023-07-24T03:15:53;17.50;99.90
8261;DHT22;64115;50.170;8.242;2023-07-24T03:18:20;17.40;99.90
8261;DHT22;64115;50.170;8.242;2023-07-24T03:20:47;17.40;99.90
8261;DHT22;64115;50.170;8.242;2023-07-24T03:23:14;17.40;99.90
8261;DHT22;64115;50.170;8.242;2023-07-24T03:25:41;17.30;99.90
8261;DHT22;64115;50.170;8.242;2023-07-24T03:28:09;17.30;99.90
8261;DHT22;64115;50.170;8.242;2023-07-24T03:30:36;17.30;99.90
8261;DHT22;64115;50.170;8.242;2023-07-24T03:33:04;17.30;99.90
8261;DHT22;64115;50.170;8.242;2023-07-24T03:35:31;17.30;99.90
8261;DHT22;64115;50.170;8.242;2023-07-24T03:37:58;17.30;99.90
8261;DHT22;64115;50.170;8.242;2023-07-24T03:40:25;17.30;99.90
8261;DHT22;64115;50.170;8.242;2023-07-24T03:42:52;17.20;99.90
8261;DHT22;64115;50.170;8.242;2023-07-24T03:45:20;17.10;99.90
8261;DHT22;64115;50.170;8.242;2023-07-24T03:47:47;17.10;99.90
8261;DHT22;64115;50.170;8.242;2023-07-24T03:50:13;17.10;99.90
8261;DHT22;64115;50.170;8.242;2023-07-24T03:52:40;17.10;99.90
8261;DHT22;64115;50.170;8.242;2023-07-24T03:55:08;17.10;99.90
8261;DHT22;64115;50.170;8.242;2023-07-24T03:57:36;17.10;99.90
8261;DHT22;64115;50.170;8.242;2023-07-24T04:00:03;17.10;99.90
8261;DHT22;64115;50.170;8.242;2023-07-24T04:02:31;17.20;99.90
8261;DHT22;64115;50.170;8.242;2023-07-24T04:04:58;17.20;99.90
8261;DHT22;64115;50.170;8.242;2023-07-24T04:07:27;17.20;99.90
8261;DHT22;64115;50.170;8.242;2023-07-24T04:09:54;17.10;99.90
8261;DHT22;64115;50.170;8.242;2023-07-24T04:12:20;17.20;99.90
8261;DHT22;64115;50.170;8.242;2023-07-24T04:14:47;17.30;99.90
8261;DHT22;64115;50.170;8.242;2023-07-24T04:17:16;17.30;99.90
8261;DHT22;64115;50.170;8.242;2023-07-24T04:19:44;17.40;99.90
8261;DHT22;64115;50.170;8.242;2023-07-24T04:22:10;17.40;99.90
8261;DHT22;64115;50.170;8.242;2023-07-24T04:24:37;17.50;99.90
8261;DHT22;64115;50.170;8.242;2023-07-24T04:27:04;17.50;99.90
8261;DHT22;64115;50.170;8.242;2023-07-24T04:29:31;17.50;99.90
8261;DHT22;64115;50.170;8.242;2023-07-24T04:31:58;17.50;99.90
8261;DHT22;64115;50.170;8.242;2023-07-24T04:34:25;17.50;99.90
8261;DHT22;64115;50.170;8.242;2023-07-24T04:36:53;17.60;99.90
8261;DHT22;64115;50.170;8.242;2023-07-24T04:39:20;17.60;99.90
8261;DHT22;64115;50.170;8.242;2023-07-24T04:41:47;17.50;99.90
8261;DHT22;64115;50.170;8.242;2023-07-24T04:44:13;17.60;99.90
8261;DHT22;64115;50.170;8.242;2023-07-24T04:46:40;17.60;99.90
8261;DHT22;64115;50.170;8.242;2023-07-24T04:49:07;17.60;99.90
8261;DHT22;64115;50.170;8.242;2023-07-24T04:51:34;17.70;99.90
8261;DHT22;64115;50.170;8.242;2023-07-24T04:54:02;17.70;99.90
8261;DHT22;64115;50.170;8.242;2023-07-24T04:56:28;17.60;99.90
8261;DHT22;64115;50.170;8.242;2023-07-24T04:58:55;17.70;99.90
8261;DHT22;64115;50.170;8.242;2023-07-24T05:01:22;17.60;99.90
8261;DHT22;64115;50.170;8.242;2023-07-24T05:03:49;17.70;99.90
8261;DHT22;64115;50.170;8.242;2023-07-24T05:06:15;17.70;99.90
8261;DHT22;64115;50.170;8.242;2023-07-24T05:08:42;17.70;99.90
8261;DHT22;64115;50.170;8.242;2023-07-24T05:11:10;17.70;99.90
8261;DHT22;64115;50.170;8.242;2023-07-24T05:13:39;17.70;99.90
8261;DHT22;64115;50.170;8.242;2023-07-24T05:16:06;17.70;99.90
8261;DHT22;64115;50.170;8.242;2023-07-24T05:18:32;17.70;99.90
8261;DHT22;64115;50.170;8.242;2023-07-24T05:20:59;17.70;99.90
8261;DHT22;64115;50.170;8.242;2023-07-24T05:23:26;17.80;99.90
8261;DHT22;64115;50.170;8.242;2023-07-24T05:25:57;17.70;99.90
8261;DHT22;64115;50.170;8.242;2023-07-24T05:28:25;17.70;99.90
8261;DHT22;64115;50.170;8.242;2023-07-24T05:30:52;17.70;99.90
8261;DHT22;64115;50.170;8.242;2023-07-24T05:33:21;17.80;99.90
8261;DHT22;64115;50.170;8.242;2023-07-24T05:35:48;17.80;99.90
8261;DHT22;64115;50.170;8.242;2023-07-24T05:38:15;17.80;99.90
8261;DHT22;64115;50.170;8.242;2023-07-24T05:40:42;17.80;99.90
8261;DHT22;64115;50.170;8.242;2023-07-24T05:43:09;17.90;99.90
8261;DHT22;64115;50.170;8.242;2023-07-24T05:45:37;17.90;99.90
8261;DHT22;64115;50.170;8.242;2023-07-24T05:48:04;18.00;99.90
8261;DHT22;64115;50.170;8.242;2023-07-24T05:50:31;18.00;99.90
8261;DHT22;64115;50.170;8.242;2023-07-24T05:52:58;18.00;99.90
8261;DHT22;64115;50.170;8.242;2023-07-24T05:55:25;18.10;99.90
8261;DHT22;64115;50.170;8.242;2023-07-24T05:57:52;18.20;99.90
8261;DHT22;64115;50.170;8.242;2023-07-24T06:00:19;18.20;99.90
8261;DHT22;64115;50.170;8.242;2023-07-24T06:02:47;18.30;99.90
8261;DHT22;64115;50.170;8.242;2023-07-24T06:05:13;18.30;99.90
8261;DHT22;64115;50.170;8.242;2023-07-24T06:07:40;18.30;99.90
8261;DHT22;64115;50.170;8.242;2023-07-24T06:10:08;18.30;99.90
8261;DHT22;64115;50.170;8.242;2023-07-24T06:12:34;18.30;99.90
8261;DHT22;64115;50.170;8.242;2023-07-24T06:15:01;18.20;99.90
8261;DHT22;64115;50.170;8.242;2023-07-24T06:17:28;18.20;99.90
8261;DHT22;64115;50.170;8.242;2023-07-24T06:19:56;18.20;99.90
8261;DHT22;64115;50.170;8.242;2023-07-24T06:22:23;18.10;99.90
8261;DHT22;64115;50.170;8.242;2023-07-24T06:24:50;18.10;99.90
8261;DHT22;64115;50.170;8.242;2023-07-24T06:27:17;18.20;99.90
8261;DHT22;64115;50.170;8.242;2023-07-24T06:29:44;18.20;99.90
8261;DHT22;64115;50.170;8.242;2023-07-24T06:32:10;18.20;99.90
8261;DHT22;64115;50.170;8.242;2023-07-24T06:34:37;18.20;99.90
8261;DHT22;64115;50.170;8.242;2023-07-24T06:37:05;18.30;99.90
8261;DHT22;64115;50.170;8.242;2023-07-24T06:39:32;18.30;99.90
8261;DHT22;64115;50.170;8.242;2023-07-24T06:41:59;18.40;99.90
8261;DHT22;64115;50.170;8.242;2023-07-24T06:44:26;18.50;99.90
8261;DHT22;64115;50.170;8.242;2023-07-24T06:46:53;18.70;99.90
8261;DHT22;64115;50.170;8.242;2023-07-24T06:49:20;18.80;99.90
8261;DHT22;64115;50.170;8.242;2023-07-24T06:51:46;18.90;99.90
8261;DHT22;64115;50.170;8.242;2023-07-24T06:54:14;19.10;99.90
8261;DHT22;64115;50.170;8.242;2023-07-24T06:56:41;19.20;99.90
8261;DHT22;64115;50.170;8.242;2023-07-24T06:59:08;19.30;99.90
8261;DHT22;64115;50.170;8.242;2023-07-24T07:01:35;19.40;99.90
8261;DHT22;64115;50.170;8.242;2023-07-24T07:04:01;19.40;99.90
8261;DHT22;64115;50.170;8.242;2023-07-24T07:06:28;19.60;99.90
8261;DHT22;64115;50.170;8.242;2023-07-24T07:08:55;19.70;99.90
8261;DHT22;64115;50.170;8.242;2023-07-24T07:11:23;19.90;99.90
8261;DHT22;64115;50.170;8.242;2023-07-24T07:13:50;20.00;99.90
8261;DHT22;64115;50.170;8.242;2023-07-24T07:16:16;20.00;99.90
8261;DHT22;64115;50.170;8.242;2023-07-24T07:18:44;20.10;99.90
8261;DHT22;64115;50.170;8.242;2023-07-24T07:21:11;20.10;99.90
8261;DHT22;64115;50.170;8.242;2023-07-24T07:23:38;20.00;99.90
8261;DHT22;64115;50.170;8.242;2023-07-24T07:26:04;20.00;99.90
8261;DHT22;64115;50.170;8.242;2023-07-24T07:28:32;20.00;99.90
8261;DHT22;64115;50.170;8.242;2023-07-24T07:30:59;20.00;99.90
8261;DHT22;64115;50.170;8.242;2023-07-24T07:33:28;19.90;99.90
8261;DHT22;64115;50.170;8.242;2023-07-24T07:35:56;20.00;99.90
8261;DHT22;64115;50.170;8.242;2023-07-24T07:38:22;20.10;99.90
8261;DHT22;64115;50.170;8.242;2023-07-24T07:40:49;20.20;99.90
8261;DHT22;64115;50.170;8.242;2023-07-24T07:43:16;20.20;99.90
8261;DHT22;64115;50.170;8.242;2023-07-24T07:45:44;20.20;99.90
8261;DHT22;64115;50.170;8.242;2023-07-24T07:48:11;20.30;99.90
8261;DHT22;64115;50.170;8.242;2023-07-24T07:50:38;20.20;99.90
8261;DHT22;64115;50.170;8.242;2023-07-24T07:53:05;20.20;99.90
8261;DHT22;64115;50.170;8.242;2023-07-24T07:55:31;20.30;99.90
8261;DHT22;64115;50.170;8.242;2023-07-24T07:57:58;20.40;99.90
8261;DHT22;64115;50.170;8.242;2023-07-24T08:00:25;20.40;99.90
8261;DHT22;64115;50.170;8.242;2023-07-24T08:02:53;20.20;99.90
8261;DHT22;64115;50.170;8.242;2023-07-24T08:05:20;20.00;99.90
8261;DHT22;64115;50.170;8.242;2023-07-24T08:07:48;20.00;99.90
8261;DHT22;64115;50.170;8.242;2023-07-24T08:10:15;20.10;99.90
8261;DHT22;64115;50.170;8.242;2023-07-24T08:12:42;20.10;99.90
8261;DHT22;64115;50.170;8.242;2023-07-24T08:15:10;20.10;99.90
8261;DHT22;64115;50.170;8.242;2023-07-24T08:17:37;20.30;99.90
8261;DHT22;64115;50.170;8.242;2023-07-24T08:20:06;20.30;99.90
8261;DHT22;64115;50.170;8.242;2023-07-24T08:22:36;20.20;99.90
8261;DHT22;64115;50.170;8.242;2023-07-24T08:25:03;20.20;99.90
8261;DHT22;64115;50.170;8.242;2023-07-24T08:27:30;20.20;99.90
8261;DHT22;64115;50.170;8.242;2023-07-24T08:29:57;20.40;99.90
8261;DHT22;64115;50.170;8.242;2023-07-24T08:32:24;20.80;99.90
8261;DHT22;64115;50.170;8.242;2023-07-24T08:34:51;21.20;99.90
8261;DHT22;64115;50.170;8.242;2023-07-24T08:37:19;21.50;99.90
8261;DHT22;64115;50.170;8.242;2023-07-24T08:39:45;21.50;99.90
8261;DHT22;64115;50.170;8.242;2023-07-24T08:42:15;21.60;99.90
8261;DHT22;64115;50.170;8.242;2023-07-24T08:44:43;22.00;99.90
8261;DHT22;64115;50.170;8.242;2023-07-24T08:47:11;22.20;99.90
8261;DHT22;64115;50.170;8.242;2023-07-24T08:49:42;22.50;99.90
8261;DHT22;64115;50.170;8.242;2023-07-24T08:52:12;22.60;99.90
8261;DHT22;64115;50.170;8.242;2023-07-24T08:54:40;22.90;99.90
8261;DHT22;64115;50.170;8.242;2023-07-24T08:57:07;23.30;99.90
8261;DHT22;64115;50.170;8.242;2023-07-24T08:59:34;23.50;99.90
8261;DHT22;64115;50.170;8.242;2023-07-24T09:02:01;23.50;99.90
8261;DHT22;64115;50.170;8.242;2023-07-24T09:04:28;23.50;99.90
8261;DHT22;64115;50.170;8.242;2023-07-24T09:06:58;23.50;99.90
8261;DHT22;64115;50.170;8.242;2023-07-24T09:09:29;23.20;99.90
8261;DHT22;64115;50.170;8.242;2023-07-24T09:11:59;22.90;99.90
8261;DHT22;64115;50.170;8.242;2023-07-24T09:14:27;22.70;99.90
8261;DHT22;64115;50.170;8.242;2023-07-24T09:17:03;22.60;99.90
8261;DHT22;64115;50.170;8.242;2023-07-24T09:19:30;22.40;99.90
8261;DHT22;64115;50.170;8.242;2023-07-24T09:22:07;22.20;99.90
8261;DHT22;64115;50.170;8.242;2023-07-24T09:24:36;22.20;99.90
8261;DHT22;64115;50.170;8.242;2023-07-24T09:27:06;22.20;99.90
8261;DHT22;64115;50.170;8.242;2023-07-24T09:29:35;22.20;99.90
8261;DHT22;64115;50.170;8.242;2023-07-24T09:32:02;22.40;99.90
8261;DHT22;64115;50.170;8.242;2023-07-24T09:34:29;22.40;99.90
8261;DHT22;64115;50.170;8.242;2023-07-24T09:36:56;22.40;99.90
8261;DHT22;64115;50.170;8.242;2023-07-24T09:39:25;22.60;99.90
8261;DHT22;64115;50.170;8.242;2023-07-24T09:41:52;22.70;99.90
8261;DHT22;64115;50.170;8.242;2023-07-24T09:44:21;22.90;99.90
8261;DHT22;64115;50.170;8.242;2023-07-24T09:46:51;22.90;99.90
8261;DHT22;64115;50.170;8.242;2023-07-24T09:49:18;22.80;99.90
8261;DHT22;64115;50.170;8.242;2023-07-24T09:51:48;23.00;99.90
8261;DHT22;64115;50.170;8.242;2023-07-24T09:54:21;23.40;99.90
8261;DHT22;64115;50.170;8.242;2023-07-24T09:56:52;23.20;99.90
8261;DHT22;64115;50.170;8.242;2023-07-24T09:59:21;23.10;99.90
8261;DHT22;64115;50.170;8.242;2023-07-24T10:01:49;22.90;99.90
8261;DHT22;64115;50.170;8.242;2023-07-24T10:04:17;23.00;99.90
8261;DHT22;64115;50.170;8.242;2023-07-24T10:06:44;23.10;99.90
8261;DHT22;64115;50.170;8.242;2023-07-24T10:09:12;23.00;99.90
8261;DHT22;64115;50.170;8.242;2023-07-24T10:11:39;23.00;99.90
8261;DHT22;64115;50.170;8.242;2023-07-24T10:14:06;23.10;99.90
8261;DHT22;64115;50.170;8.242;2023-07-24T10:16:34;23.20;99.90
8261;DHT22;64115;50.170;8.242;2023-07-24T10:19:01;23.10;99.90
8261;DHT22;64115;50.170;8.242;2023-07-24T10:21:44;23.00;99.90
8261;DHT22;64115;50.170;8.242;2023-07-24T10:24:12;23.00;99.90
8261;DHT22;64115;50.170;8.242;2023-07-24T10:26:39;23.10;99.90
8261;DHT22;64115;50.170;8.242;2023-07-24T10:29:06;23.10;99.90
8261;DHT22;64115;50.170;8.242;2023-07-24T10:31:34;23.10;99.90
8261;DHT22;64115;50.170;8.242;2023-07-24T10:34:04;23.30;99.90
8261;DHT22;64115;50.170;8.242;2023-07-24T10:36:33;23.30;99.90
8261;DHT22;64115;50.170;8.242;2023-07-24T10:39:13;23.20;99.90
8261;DHT22;64115;50.170;8.242;2023-07-24T10:41:40;23.40;99.90
8261;DHT22;64115;50.170;8.242;2023-07-24T10:44:07;23.60;99.90
8261;DHT22;64115;50.170;8.242;2023-07-24T10:46:39;23.90;99.90
8261;DHT22;64115;50.170;8.242;2023-07-24T10:49:07;24.00;99.90
8261;DHT22;64115;50.170;8.242;2023-07-24T10:51:34;24.20;99.90
8261;DHT22;64115;50.170;8.242;2023-07-24T10:54:03;24.20;99.90
8261;DHT22;64115;50.170;8.242;2023-07-24T10:56:30;24.20;99.90
8261;DHT22;64115;50.170;8.242;2023-07-24T10:59:05;24.20;99.90
8261;DHT22;64115;50.170;8.242;2023-07-24T11:01:32;24.30;99.90
8261;DHT22;64115;50.170;8.242;2023-07-24T11:04:03;24.20;99.90
8261;DHT22;64115;50.170;8.242;2023-07-24T11:06:30;24.50;99.90
8261;DHT22;64115;50.170;8.242;2023-07-24T11:09:00;24.70;99.90
8261;DHT22;64115;50.170;8.242;2023-07-24T11:11:34;24.60;99.90
8261;DHT22;64115;50.170;8.242;2023-07-24T11:14:03;24.70;99.90
8261;DHT22;64115;50.170;8.242;2023-07-24T11:16:30;24.70;99.90
8261;DHT22;64115;50.170;8.242;2023-07-24T11:18:58;24.60;99.90
8261;DHT22;64115;50.170;8.242;2023-07-24T11:21:26;24.50;99.90
8261;DHT22;64115;50.170;8.242;2023-07-24T11:23:55;24.40;99.90
8261;DHT22;64115;50.170;8.242;2023-07-24T11:26:23;24.50;99.90
8261;DHT22;64115;50.170;8.242;2023-07-24T11:28:51;24.60;99.90
8261;DHT22;64115;50.170;8.242;2023-07-24T11:31:18;24.70;99.90
8261;DHT22;64115;50.170;8.242;2023-07-24T11:33:46;24.80;99.90
8261;DHT22;64115;50.170;8.242;2023-07-24T11:36:14;24.90;99.90
8261;DHT22;64115;50.170;8.242;2023-07-24T11:38:44;25.10;99.90
8261;DHT22;64115;50.170;8.242;2023-07-24T11:41:12;25.10;99.90
8261;DHT22;64115;50.170;8.242;2023-07-24T11:43:45;25.10;99.90
8261;DHT22;64115;50.170;8.242;2023-07-24T11:46:22;25.20;99.90
8261;DHT22;64115;50.170;8.242;2023-07-24T11:48:50;25.30;99.90
8261;DHT22;64115;50.170;8.242;2023-07-24T11:51:19;25.30;99.90
8261;DHT22;64115;50.170;8.242;2023-07-24T11:53:47;25.30;99.90
8261;DHT22;64115;50.170;8.242;2023-07-24T11:56:15;25.50;99.90
8261;DHT22;64115;50.170;8.242;2023-07-24T11:58:42;25.40;99.90
8261;DHT22;64115;50.170;8.242;2023-07-24T12:01:11;25.40;99.90
8261;DHT22;64115;50.170;8.242;2023-07-24T12:03:38;25.30;99.90
8261;DHT22;64115;50.170;8.242;2023-07-24T12:06:05;25.00;99.90
8261;DHT22;64115;50.170;8.242;2023-07-24T12:08:33;24.70;99.90
8261;DHT22;64115;50.170;8.242;2023-07-24T12:11:02;24.80;99.90
8261;DHT22;64115;50.170;8.242;2023-07-24T12:13:29;24.80;99.90
8261;DHT22;64115;50.170;8.242;2023-07-24T12:15:57;25.10;99.90
8261;DHT22;64115;50.170;8.242;2023-07-24T12:18:23;25.30;99.90
8261;DHT22;64115;50.170;8.242;2023-07-24T12:20:50;25.20;99.90
8261;DHT22;64115;50.170;8.242;2023-07-24T12:23:17;25.30;99.90
8261;DHT22;64115;50.170;8.242;2023-07-24T12:25:48;25.20;99.90
8261;DHT22;64115;50.170;8.242;2023-07-24T12:28:16;25.20;99.90
8261;DHT22;64115;50.170;8.242;2023-07-24T12:30:42;25.40;99.90
8261;DHT22;64115;50.170;8.242;2023-07-24T12:33:09;25.40;99.90
8261;DHT22;64115;50.170;8.242;2023-07-24T12:35:36;25.10;99.90
8261;DHT22;64115;50.170;8.242;2023-07-24T12:38:03;24.70;99.90
8261;DHT22;64115;50.170;8.242;2023-07-24T12:40:30;24.70;99.90
8261;DHT22;64115;50.170;8.242;2023-07-24T12:42:56;24.70;99.90
8261;DHT22;64115;50.170;8.242;2023-07-24T12:45:24;24.70;99.90
8261;DHT22;64115;50.170;8.242;2023-07-24T12:47:53;24.80;99.90
8261;DHT22;64115;50.170;8.242;2023-07-24T12:50:20;24.70;99.90
8261;DHT22;64115;50.170;8.242;2023-07-24T12:52:48;24.80;99.90
8261;DHT22;64115;50.170;8.242;2023-07-24T12:55:15;24.80;99.90
8261;DHT22;64115;50.170;8.242;2023-07-24T12:57:42;24.90;99.90
8261;DHT22;64115;50.170;8.242;2023-07-24T13:00:09;25.10;99.90
8261;DHT22;64115;50.170;8.242;2023-07-24T13:02:38;25.50;99.90
8261;DHT22;64115;50.170;8.242;2023-07-24T13:05:05;25.70;99.90
8261;DHT22;64115;50.170;8.242;2023-07-24T13:07:32;25.70;99.90
8261;DHT22;64115;50.170;8.242;2023-07-24T13:09:58;25.60;99.90
8261;DHT22;64115;50.170;8.242;2023-07-24T13:12:25;25.80;99.90
8261;DHT22;64115;50.170;8.242;2023-07-24T13:14:52;25.90;99.90
8261;DHT22;64115;50.170;8.242;2023-07-24T13:17:19;26.10;99.90
8261;DHT22;64115;50.170;8.242;2023-07-24T13:19:47;26.20;99.90
8261;DHT22;64115;50.170;8.242;2023-07-24T13:22:14;26.20;99.90
8261;DHT22;64115;50.170;8.242;2023-07-24T13:24:40;26.10;99.90
8261;DHT22;64115;50.170;8.242;2023-07-24T13:27:07;26.20;99.90
8261;DHT22;64115;50.170;8.242;2023-07-24T13:29:34;26.10;99.90
8261;DHT22;64115;50.170;8.242;2023-07-24T13:32:00;25.50;99.90
8261;DHT22;64115;50.170;8.242;2023-07-24T13:34:27;25.10;99.90
8261;DHT22;64115;50.170;8.242;2023-07-24T13:36:55;24.80;99.90
8261;DHT22;64115;50.170;8.242;2023-07-24T13:39:22;24.30;99.90
8261;DHT22;64115;50.170;8.242;2023-07-24T13:41:49;24.00;99.90
8261;DHT22;64115;50.170;8.242;2023-07-24T13:44:16;23.60;99.90
8261;DHT22;64115;50.170;8.242;2023-07-24T13:46:43;23.30;99.90
8261;DHT22;64115;50.170;8.242;2023-07-24T13:49:09;23.00;99.90
8261;DHT22;64115;50.170;8.242;2023-07-24T13:51:36;22.80;99.90
8261;DHT22;64115;50.170;8.242;2023-07-24T13:54:04;22.70;99.90
8261;DHT22;64115;50.170;8.242;2023-07-24T13:56:31;22.50;99.90
8261;DHT22;64115;50.170;8.242;2023-07-24T13:59:00;22.30;99.90
8261;DHT22;64115;50.170;8.242;2023-07-24T14:01:28;22.20;99.90
8261;DHT22;64115;50.170;8.242;2023-07-24T14:03:55;22.30;99.90
8261;DHT22;64115;50.170;8.242;2023-07-24T14:06:22;22.50;99.90
8261;DHT22;64115;50.170;8.242;2023-07-24T14:08:48;22.50;99.90
8261;DHT22;64115;50.170;8.242;2023-07-24T14:11:17;22.40;99.90
8261;DHT22;64115;50.170;8.242;2023-07-24T14:13:43;22.30;99.90
8261;DHT22;64115;50.170;8.242;2023-07-24T14:16:12;22.40;99.90
8261;DHT22;64115;50.170;8.242;2023-07-24T14:18:38;22.70;99.90
8261;DHT22;64115;50.170;8.242;2023-07-24T14:21:05;23.00;99.90
8261;DHT22;64115;50.170;8.242;2023-07-24T14:23:32;23.20;99.90
8261;DHT22;64115;50.170;8.242;2023-07-24T14:25:58;23.30;99.90
8261;DHT22;64115;50.170;8.242;2023-07-24T14:28:27;23.10;99.90
8261;DHT22;64115;50.170;8.242;2023-07-24T14:30:53;23.10;99.90
8261;DHT22;64115;50.170;8.242;2023-07-24T14:33:20;23.10;99.90
8261;DHT22;64115;50.170;8.242;2023-07-24T14:35:47;23.10;99.90
8261;DHT22;64115;50.170;8.242;2023-07-24T14:38:14;23.10;99.90
8261;DHT22;64115;50.170;8.242;2023-07-24T14:40:41;23.10;99.90
8261;DHT22;64115;50.170;8.242;2023-07-24T14:43:08;22.80;99.90
8261;DHT22;64115;50.170;8.242;2023-07-24T14:45:36;22.70;99.90
8261;DHT22;64115;50.170;8.242;2023-07-24T14:48:03;22.70;99.90
8261;DHT22;64115;50.170;8.242;2023-07-24T14:50:30;22.60;99.90
8261;DHT22;64115;50.170;8.242;2023-07-24T14:52:57;22.60;99.90
8261;DHT22;64115;50.170;8.242;2023-07-24T14:55:26;22.70;99.90
8261;DHT22;64115;50.170;8.242;2023-07-24T14:57:52;22.80;99.90
8261;DHT22;64115;50.170;8.242;2023-07-24T15:00:19;22.80;99.90
8261;DHT22;64115;50.170;8.242;2023-07-24T15:02:47;22.80;99.90
8261;DHT22;64115;50.170;8.242;2023-07-24T15:05:14;22.80;99.90
8261;DHT22;64115;50.170;8.242;2023-07-24T15:07:43;23.00;99.90
8261;DHT22;64115;50.170;8.242;2023-07-24T15:10:10;23.10;99.90
8261;DHT22;64115;50.170;8.242;2023-07-24T15:12:37;23.20;99.90
8261;DHT22;64115;50.170;8.242;2023-07-24T15:15:04;23.20;99.90
8261;DHT22;64115;50.170;8.242;2023-07-24T15:17:32;23.20;99.90
8261;DHT22;64115;50.170;8.242;2023-07-24T15:20:00;23.10;99.90
8261;DHT22;64115;50.170;8.242;2023-07-24T15:22:27;23.10;99.90
8261;DHT22;64115;50.170;8.242;2023-07-24T15:24:53;23.00;99.90
8261;DHT22;64115;50.170;8.242;2023-07-24T15:27:20;23.00;99.90
8261;DHT22;64115;50.170;8.242;2023-07-24T15:29:47;22.80;99.90
8261;DHT22;64115;50.170;8.242;2023-07-24T15:32:14;22.80;99.90
8261;DHT22;64115;50.170;8.242;2023-07-24T15:34:42;22.80;99.90
8261;DHT22;64115;50.170;8.242;2023-07-24T15:37:11;22.70;99.90
8261;DHT22;64115;50.170;8.242;2023-07-24T15:39:38;22.70;99.90
8261;DHT22;64115;50.170;8.242;2023-07-24T15:42:05;22.80;99.90
8261;DHT22;64115;50.170;8.242;2023-07-24T15:44:33;22.90;99.90
8261;DHT22;64115;50.170;8.242;2023-07-24T15:47:00;23.10;99.90